Terminal Aerodrome Forecast
Issued by NWS

Home | Current Version | Previous Version | Text Only | Print | Product List | Glossary On
Versions: 1 2 3 4 5 6 7 8 9 10 11 12 13 14 15 16 17 18 19 20
000
FTUS46 KPQR 280908 AAB
TAFONP
TAF AMD
KONP 280908Z 2809/2906 00000KT 5SM BR SCT003 OVC012
      TEMPO 2809/2812 1SM BR BKN003
     FM281500 27004KT P6SM SCT005 OVC020
     FM290300 00000KT 2SM BR OVC003=

USA.gov is the U.S. government's official web portal to all federal, state and local government web resources and services.